Time;durP1;ratioP1;P1;durP2;ratioP2;P2;SDS_P1;SDS_P2;PMS_P1;PMS_P2;Temp;Humidity;BMP_temperature;BMP_pressure;BME280_temperature;BME280_humidity;BME280_pressure;Samples;Min_cycle;Max_cycle;Signal;HPM_P1;HPM_P2
2023/01/05 09:36:35;;;;;;;10.93;3.65;;;;;;;;;;5142928;27;20209;-60
2023/01/05 09:39:00;;;;;;;9.75;2.67;;;;;;;;;;5076702;28;1215278;-60
2023/01/05 09:41:27;;;;;;;12.75;2.85;;;;;;;;;;5128011;28;20055;-60
2023/01/05 09:44:13;;;;;;;12.65;3.05;;;;;;;;;;5127407;28;20487;-61
2023/01/05 09:46:42;;;;;;;15.93;3.67;;;;;;;;;;5107784;28;20070;-60
2023/01/05 09:49:13;;;;;;;13.25;3.10;;;;;;;;;;5107607;28;20506;-58
2023/01/05 09:51:40;;;;;;;11.88;3.00;;;;;;;;;;5107828;28;20109;-60
2023/01/05 09:54:12;;;;;;;15.35;3.00;;;;;;;;;;5089518;28;20055;-61
2023/01/05 09:56:40;;;;;;;8.68;2.95;;;;;;;;;;5109899;28;20086;-59
2023/01/05 09:59:32;;;;;;;11.73;3.63;;;;;;;;;;5109777;28;20058;-60
2023/01/05 10:02:00;;;;;;;17.00;3.45;;;;;;;;;;5109972;28;20064;-60
2023/01/05 10:04:28;;;;;;;12.95;3.40;;;;;;;;;;5109103;28;20514;-61
2023/01/05 10:06:58;;;;;;;15.93;3.53;;;;;;;;;;5109775;28;20036;-60
2023/01/05 10:09:30;;;;;;;10.23;3.83;;;;;;;;;;5110089;28;20431;-61
2023/01/05 10:15:04;;;;;;;11.10;3.10;;;;;;;;;;5091080;28;20040;-60
2023/01/05 10:17:32;;;;;;;15.15;3.47;;;;;;;;;;5092062;28;20071;-62
2023/01/05 10:20:26;;;;;;;12.55;3.72;;;;;;;;;;5109919;28;20040;-62
2023/01/05 10:22:55;;;;;;;13.70;3.67;;;;;;;;;;5110221;28;20036;-60
2023/01/05 10:25:41;;;;;;;16.98;3.53;;;;;;;;;;5109577;28;20086;-59
2023/01/05 10:28:26;;;;;;;12.93;3.58;;;;;;;;;;5092827;28;20101;-60
2023/01/05 10:30:57;;;;;;;15.40;3.97;;;;;;;;;;5110118;28;20081;-61
2023/01/05 10:33:43;;;;;;;12.07;3.30;;;;;;;;;;5110049;28;20052;-60
2023/01/05 10:36:35;;;;;;;11.13;3.45;;;;;;;;;;5111004;28;20089;-60
2023/01/05 10:39:40;;;;;;;16.30;3.63;;;;;;;;;;5111466;28;20139;-63
2023/01/05 10:42:09;;;;;;;16.10;2.92;;;;;;;;;;5109838;28;20044;-60
2023/01/05 10:44:55;;;;;;;16.45;4.00;;;;;;;;;;5108761;28;20411;-60
2023/01/05 10:47:23;;;;;;;13.88;3.45;;;;;;;;;;5098952;28;20075;-60
2023/01/05 10:49:50;;;;;;;10.85;3.55;;;;;;;;;;5095666;28;20036;-60
2023/01/05 10:52:18;;;;;;;13.48;3.78;;;;;;;;;;5095868;28;20040;-60
2023/01/05 10:54:57;;;;;;;16.30;4.55;;;;;;;;;;5094823;28;20040;-60
2023/01/05 10:57:32;;;;;;;13.95;5.00;;;;;;;;;;5095814;28;20054;-60
2023/01/05 11:00:01;;;;;;;18.42;4.50;;;;;;;;;;5095240;28;20047;-60
2023/01/05 11:02:29;;;;;;;13.00;3.80;;;;;;;;;;5095272;28;20438;-60
2023/01/05 11:05:02;;;;;;;18.27;4.40;;;;;;;;;;5094639;28;20119;-60
2023/01/05 11:07:29;;;;;;;13.80;3.97;;;;;;;;;;5095142;28;20055;-60
2023/01/05 11:09:55;;;;;;;17.10;3.95;;;;;;;;;;5095143;28;20078;-61
2023/01/05 11:12:23;;;;;;;16.23;5.13;;;;;;;;;;5095219;28;20114;-61
2023/01/05 11:14:51;;;;;;;14.77;4.25;;;;;;;;;;5094163;28;20127;-61
2023/01/05 11:17:26;;;;;;;18.67;8.40;;;;;;;;;;5094746;28;20040;-61
2023/01/05 11:19:54;;;;;;;19.80;7.07;;;;;;;;;;5094765;28;20157;-61
2023/01/05 11:22:27;;;;;;;22.42;9.30;;;;;;;;;;5094715;28;20500;-61
2023/01/05 11:25:11;;;;;;;26.67;10.00;;;;;;;;;;5093970;28;20075;-60
2023/01/05 11:27:38;;;;;;;14.63;4.30;;;;;;;;;;5094440;28;20078;-61
2023/01/05 11:30:13;;;;;;;14.23;3.53;;;;;;;;;;5094451;28;20081;-61
2023/01/05 11:32:40;;;;;;;14.02;3.42;;;;;;;;;;5094277;28;20044;-61
2023/01/05 11:35:36;;;;;;;9.40;3.20;;;;;;;;;;5093493;28;20044;-60
2023/01/05 11:38:03;;;;;;;12.25;3.50;;;;;;;;;;5059184;28;20083;-61
2023/01/05 11:40:30;;;;;;;13.80;3.30;;;;;;;;;;5094187;28;20463;-61
2023/01/05 11:42:58;;;;;;;14.10;4.40;;;;;;;;;;5076175;28;20040;-61
2023/01/05 11:45:28;;;;;;;15.18;3.83;;;;;;;;;;5075498;28;20526;-60
2023/01/05 11:47:57;;;;;;;13.23;4.20;;;;;;;;;;5076395;28;20052;-61
2023/01/05 11:50:25;;;;;;;12.75;2.80;;;;;;;;;;5076127;28;20072;-60
2023/01/05 11:52:55;;;;;;;17.92;3.70;;;;;;;;;;5093976;28;20085;-60
2023/01/05 11:55:29;;;;;;;12.27;3.35;;;;;;;;;;5093463;28;20075;-60
2023/01/05 11:57:55;;;;;;;;;;;;;;;;;;5075952;28;20044;-61
2023/01/05 12:00:40;;;;;;;12.85;3.13;;;;;;;;;;5094232;28;19926;-61
2023/01/05 12:03:25;;;;;;;15.77;3.05;;;;;;;;;;5093839;28;20082;-60
2023/01/05 12:05:56;;;;;;;16.10;3.92;;;;;;;;;;5093383;28;20044;-61
2023/01/05 12:08:35;;;;;;;14.38;3.63;;;;;;;;;;5093789;28;20058;-61
2023/01/05 12:11:04;;;;;;;13.80;3.58;;;;;;;;;;5075830;28;20048;-61
2023/01/05 12:13:37;;;;;;;13.23;3.83;;;;;;;;;;5093758;28;20040;-60
2023/01/05 12:16:07;;;;;;;10.52;3.72;;;;;;;;;;5093137;28;20471;-60
2023/01/05 12:18:49;;;;;;;14.55;3.63;;;;;;;;;;5093618;28;20047;-60
2023/01/05 12:21:22;;;;;;;12.55;3.03;;;;;;;;;;5093549;28;20479;-60
2023/01/05 12:24:27;;;;;;;15.45;3.10;;;;;;;;;;5093438;28;20410;-62
2023/01/05 12:26:53;;;;;;;;;;;;;;;;;;5011734;28;20045;-61
2023/01/05 12:29:32;;;;;;;16.00;3.30;;;;;;;;;;5011322;28;19953;-61
2023/01/05 12:32:25;;;;;;;13.20;3.58;;;;;;;;;;5059546;28;20471;-61
2023/01/05 12:35:24;;;;;;;18.83;3.67;;;;;;;;;;5092750;28;20044;-59
2023/01/05 12:38:04;;;;;;;15.57;3.67;;;;;;;;;;5075205;28;20508;-60
2023/01/05 12:40:36;;;;;;;9.35;2.58;;;;;;;;;;5093633;28;20040;-60
2023/01/05 12:43:06;;;;;;;14.75;3.30;;;;;;;;;;5093298;28;20067;-59
2023/01/05 12:45:52;;;;;;;16.67;3.60;;;;;;;;;;5092779;28;20040;-59
2023/01/05 12:48:38;;;;;;;15.77;3.60;;;;;;;;;;5093369;28;20123;-60
2023/01/05 12:51:09;;;;;;;15.20;3.03;;;;;;;;;;5093125;28;20074;-61
2023/01/05 12:53:35;;;;;;;16.80;3.13;;;;;;;;;;5093256;28;20044;-62
2023/01/05 12:56:16;;;;;;;13.75;3.20;;;;;;;;;;5074798;28;20048;-60
2023/01/05 12:58:54;;;;;;;16.50;3.22;;;;;;;;;;5093226;28;20450;-60
2023/01/05 13:01:26;;;;;;;13.57;3.40;;;;;;;;;;5093032;28;20496;-60
2023/01/05 13:03:58;;;;;;;18.60;4.38;;;;;;;;;;5093759;28;20047;-60
2023/01/05 13:06:25;;;;;;;9.10;2.88;;;;;;;;;;5092757;28;20078;-61
2023/01/05 13:08:54;;;;;;;15.13;4.20;;;;;;;;;;5093145;28;20076;-61
2023/01/05 13:11:24;;;;;;;18.33;4.50;;;;;;;;;;5093236;28;20071;-61
2023/01/05 13:13:53;;;;;;;17.15;3.83;;;;;;;;;;5093617;28;20097;-61
2023/01/05 13:16:26;;;;;;;19.73;4.22;;;;;;;;;;5093255;28;20156;-62
2023/01/05 13:18:55;;;;;;;14.32;3.53;;;;;;;;;;5094788;28;20059;-62
2023/01/05 13:21:22;;;;;;;15.30;3.60;;;;;;;;;;5077498;28;20040;-61
2023/01/05 13:23:58;;;;;;;13.82;4.22;;;;;;;;;;5094799;28;20097;-61
2023/01/05 13:26:25;;;;;;;13.25;3.30;;;;;;;;;;5094667;28;20098;-60
2023/01/05 13:28:54;;;;;;;17.77;3.63;;;;;;;;;;5058901;28;20063;-60
2023/01/05 13:31:44;;;;;;;11.75;3.70;;;;;;;;;;5094907;28;20040;-60
2023/01/05 13:34:16;;;;;;;16.70;3.30;;;;;;;;;;5093901;28;20500;-61
2023/01/05 13:37:01;;;;;;;19.50;4.03;;;;;;;;;;5093871;28;20123;-60
2023/01/05 13:39:39;;;;;;;14.50;4.15;;;;;;;;;;5094842;28;20123;-62
2023/01/05 13:42:18;;;;;;;17.05;3.50;;;;;;;;;;5094601;28;20097;-61
2023/01/05 13:44:45;;;;;;;15.77;4.32;;;;;;;;;;5092393;28;20488;-61
2023/01/05 13:47:14;;;;;;;20.85;4.45;;;;;;;;;;5093892;28;20051;-61
2023/01/05 13:49:52;;;;;;;20.05;4.97;;;;;;;;;;5096087;28;20044;-61
2023/01/05 13:52:24;;;;;;;14.40;3.95;;;;;;;;;;5079951;28;20507;-61
2023/01/05 13:54:52;;;;;;;14.60;4.50;;;;;;;;;;5096665;28;20082;-61
2023/01/05 13:57:37;;;;;;;16.52;4.85;;;;;;;;;;5078131;28;20411;-60
2023/01/05 14:00:18;;;;;;;19.55;4.88;;;;;;;;;;5093051;28;20040;-61
2023/01/05 14:02:45;;;;;;;20.30;3.90;;;;;;;;;;5074741;28;20044;-61
2023/01/05 14:05:22;;;;;;;12.55;3.08;;;;;;;;;;5091959;28;20511;-61
2023/01/05 14:07:49;;;;;;;17.45;3.95;;;;;;;;;;5092465;28;20089;-61
2023/01/05 14:10:21;;;;;;;12.00;3.83;;;;;;;;;;5074347;28;20465;-61
2023/01/05 14:12:48;;;;;;;14.98;4.70;;;;;;;;;;5092144;28;20200;-59
2023/01/05 14:15:34;;;;;;;15.20;3.97;;;;;;;;;;5091492;28;20073;-60
2023/01/05 14:18:01;;;;;;;19.30;3.97;;;;;;;;;;5091970;28;20044;-59
2023/01/05 14:20:40;;;;;;;14.90;4.13;;;;;;;;;;5091867;28;20050;-59
2023/01/05 14:23:22;;;;;;;10.63;3.33;;;;;;;;;;5095116;28;20500;-59
2023/01/05 14:25:51;;;;;;;17.23;4.05;;;;;;;;;;5095112;28;20072;-59
2023/01/05 14:28:27;;;;;;;17.42;3.00;;;;;;;;;;5077566;28;20044;-60
2023/01/05 14:31:20;;;;;;;17.40;4.50;;;;;;;;;;5095774;28;20094;-60
2023/01/05 14:33:57;;;;;;;13.90;3.90;;;;;;;;;;5095737;28;20040;-58
2023/01/05 14:36:29;;;;;;;13.50;3.95;;;;;;;;;;5095274;28;20036;-59
2023/01/05 14:39:01;;;;;;;12.88;3.20;;;;;;;;;;5098329;28;20090;-59
2023/01/05 14:41:28;;;;;;;11.65;3.50;;;;;;;;;;5100635;28;20047;-60
2023/01/05 14:43:59;;;;;;;15.50;4.60;;;;;;;;;;5098359;28;20066;-59
2023/01/05 14:46:26;;;;;;;13.30;4.45;;;;;;;;;;5095010;28;20385;-59
2023/01/05 14:49:00;;;;;;;12.65;4.25;;;;;;;;;;5095387;28;20052;-59
2023/01/05 14:51:28;;;;;;;209.52;29.23;;;;;;;;;;5077131;28;20097;-60
2023/01/05 14:53:56;;;;;;;145.68;20.00;;;;;;;;;;5095026;28;20389;-60
2023/01/05 14:56:22;;;;;;;275.13;38.63;;;;;;;;;;5094371;28;20545;-60
2023/01/05 14:59:12;;;;;;;39.17;5.85;;;;;;;;;;5094847;28;20465;-58
2023/01/05 15:01:44;;;;;;;13.80;4.43;;;;;;;;;;5094986;28;20040;-59
2023/01/05 15:04:16;;;;;;;156.25;21.17;;;;;;;;;;5094250;28;20051;-60
2023/01/05 15:06:46;;;;;;;257.63;34.85;;;;;;;;;;5094766;28;20048;-59
2023/01/05 15:09:30;;;;;;;271.13;40.35;;;;;;;;;;5094859;28;20051;-59
2023/01/05 15:12:16;;;;;;;78.78;13.73;;;;;;;;;;5094798;28;20048;-59
2023/01/05 15:15:02;;;;;;;87.57;13.40;;;;;;;;;;5094317;28;20043;-59
2023/01/05 15:17:48;;;;;;;162.63;23.30;;;;;;;;;;5077773;28;20044;-59
2023/01/05 15:20:23;;;;;;;50.30;9.63;;;;;;;;;;5097810;28;20043;-60
2023/01/05 15:22:56;;;;;;;16.88;3.60;;;;;;;;;;5098631;28;20044;-60
2023/01/05 15:25:22;;;;;;;20.45;3.70;;;;;;;;;;5096852;28;20074;-60
2023/01/05 15:28:01;;;;;;;17.25;3.83;;;;;;;;;;5097045;28;20047;-62
2023/01/05 15:30:27;;;;;;;17.55;4.30;;;;;;;;;;5097237;28;20076;-61
2023/01/05 15:33:02;;;;;;;25.92;5.03;;;;;;;;;;5097539;28;20515;-61
2023/01/05 15:35:34;;;;;;;11.13;3.90;;;;;;;;;;5097565;28;20083;-63
2023/01/05 15:38:11;;;;;;;15.23;4.28;;;;;;;;;;5078675;28;20036;-61
2023/01/05 15:40:38;;;;;;;14.13;3.92;;;;;;;;;;5096905;28;20059;-61
2023/01/05 15:43:04;;;;;;;19.67;3.88;;;;;;;;;;5097299;28;20040;-61
2023/01/05 15:45:32;;;;;;;35.05;6.55;;;;;;;;;;5098111;28;20077;-62
2023/01/05 15:48:06;;;;;;;21.10;4.28;;;;;;;;;;5097816;28;20055;-62
2023/01/05 15:50:42;;;;;;;14.15;3.30;;;;;;;;;;5097747;28;20090;-62
2023/01/05 15:53:28;;;;;;;19.38;4.13;;;;;;;;;;5098219;28;20044;-61
2023/01/05 15:55:54;;;;;;;14.98;3.75;;;;;;;;;;5098527;28;20075;-62
2023/01/05 15:58:22;;;;;;;132.98;19.55;;;;;;;;;;5099530;28;20047;-61
2023/01/05 16:00:59;;;;;;;416.80;51.65;;;;;;;;;;5098612;28;20069;-62
2023/01/05 16:03:27;;;;;;;235.43;33.60;;;;;;;;;;5098702;28;20775;-62
2023/01/05 16:05:58;;;;;;;287.55;35.75;;;;;;;;;;5096777;28;20123;-61
2023/01/05 16:08:24;;;;;;;49.67;7.20;;;;;;;;;;5095092;28;20071;-63
2023/01/05 16:10:54;;;;;;;153.88;17.77;;;;;;;;;;5094680;28;20127;-61
2023/01/05 16:13:36;;;;;;;169.38;22.33;;;;;;;;;;5095261;28;20071;-61
2023/01/05 16:16:04;;;;;;;98.80;16.33;;;;;;;;;;5094115;28;20040;-61
2023/01/05 16:18:35;;;;;;;144.57;21.98;;;;;;;;;;5094750;28;20097;-61
2023/01/05 16:21:20;;;;;;;62.33;9.80;;;;;;;;;;5094050;28;20043;-62
2023/01/05 16:23:55;;;;;;;17.35;4.45;;;;;;;;;;5076172;28;20119;-62
2023/01/05 16:26:22;;;;;;;17.17;4.22;;;;;;;;;;5093785;28;20078;-60
2023/01/05 16:28:48;;;;;;;18.05;3.72;;;;;;;;;;5093980;28;20299;-61
2023/01/05 16:31:24;;;;;;;14.15;3.38;;;;;;;;;;5093544;28;20036;-60
2023/01/05 16:34:05;;;;;;;16.85;4.63;;;;;;;;;;5093241;28;20105;-60
2023/01/05 16:36:31;;;;;;;14.27;3.63;;;;;;;;;;5093460;28;20145;-61
2023/01/05 16:39:20;;;;;;;14.57;4.18;;;;;;;;;;5075618;28;20078;-62
2023/01/05 16:44:34;;;;;;;17.30;3.80;;;;;;;;;;5092664;28;20086;-61
2023/01/05 16:47:08;;;;;;;17.08;4.15;;;;;;;;;;5093615;28;20051;-61
2023/01/05 16:49:35;;;;;;;17.20;4.13;;;;;;;;;;5093593;28;20408;-61
2023/01/05 16:52:19;;;;;;;15.05;3.40;;;;;;;;;;5093910;28;20066;-61
2023/01/05 16:55:26;;;;;;;13.98;4.35;;;;;;;;;;5092345;28;20055;-60
2023/01/05 16:57:54;;;;;;;14.18;3.58;;;;;;;;;;5010473;28;20142;-61
2023/01/05 17:00:31;;;;;;;9.98;3.45;;;;;;;;;;5077059;28;20079;-61
2023/01/05 17:02:58;;;;;;;13.15;3.05;;;;;;;;;;5092926;28;20082;-62
2023/01/05 17:05:26;;;;;;;11.23;3.97;;;;;;;;;;5092141;28;20048;-62
2023/01/05 17:08:02;;;;;;;13.82;4.35;;;;;;;;;;5092614;28;20036;-61
2023/01/05 17:10:29;;;;;;;16.63;4.05;;;;;;;;;;5057895;28;20500;-60
2023/01/05 17:13:15;;;;;;;15.30;3.40;;;;;;;;;;5092533;28;20202;-60
2023/01/05 17:15:45;;;;;;;18.33;3.55;;;;;;;;;;5091778;28;20048;-61
2023/01/05 17:18:14;;;;;;;17.98;3.90;;;;;;;;;;5092489;28;20388;-61
2023/01/05 17:20:41;;;;;;;16.45;4.15;;;;;;;;;;5092304;28;20434;-61
2023/01/05 17:23:11;;;;;;;17.40;6.15;;;;;;;;;;5092255;28;20135;-60
2023/01/05 17:25:37;;;;;;;16.27;6.00;;;;;;;;;;5091733;28;20428;-61
2023/01/05 17:28:03;;;;;;;21.23;5.00;;;;;;;;;;5074260;28;20040;-60
2023/01/05 17:30:30;;;;;;;18.50;5.95;;;;;;;;;;5092238;28;20115;-60
2023/01/05 17:32:56;;;;;;;17.92;4.78;;;;;;;;;;5092421;28;20082;-59
2023/01/05 17:35:22;;;;;;;18.77;4.35;;;;;;;;;;5091500;28;20059;-60
2023/01/05 17:37:49;;;;;;;15.32;4.75;;;;;;;;;;5092021;28;20036;-59
2023/01/05 17:40:16;;;;;;;20.42;4.93;;;;;;;;;;5092155;28;20122;-60
2023/01/05 17:42:43;;;;;;;16.10;5.18;;;;;;;;;;5092424;28;20435;-60
2023/01/05 17:45:11;;;;;;;17.98;4.85;;;;;;;;;;5091471;28;20044;-60
2023/01/05 17:47:37;;;;;;;15.23;4.57;;;;;;;;;;5092094;28;20127;-60
2023/01/05 17:50:04;;;;;;;12.38;3.40;;;;;;;;;;5057418;28;20044;-61
2023/01/05 17:52:30;;;;;;;11.63;3.78;;;;;;;;;;5092149;28;20123;-61
2023/01/05 17:54:57;;;;;;;20.35;5.18;;;;;;;;;;5091511;28;20083;-61
2023/01/05 17:57:23;;;;;;;15.30;4.10;;;;;;;;;;5094085;28;20112;-61
2023/01/05 17:59:49;;;;;;;16.48;4.30;;;;;;;;;;5095981;28;20090;-61
2023/01/05 18:02:16;;;;;;;15.70;3.35;;;;;;;;;;5096173;28;20063;-61
2023/01/05 18:04:42;;;;;;;11.50;3.92;;;;;;;;;;5077681;28;20047;-61
2023/01/05 18:07:08;;;;;;;13.05;3.70;;;;;;;;;;5096129;28;20044;-60
2023/01/05 18:09:36;;;;;;;13.35;3.65;;;;;;;;;;5096135;28;20446;-60
2023/01/05 18:12:03;;;;;;;13.75;3.33;;;;;;;;;;5096249;28;20044;-60
2023/01/05 18:14:30;;;;;;;14.70;3.30;;;;;;;;;;5095854;28;20105;-61
2023/01/05 18:16:56;;;;;;;9.23;3.60;;;;;;;;;;5096348;28;20488;-60
2023/01/05 18:19:22;;;;;;;17.58;4.22;;;;;;;;;;5096330;28;20070;-61
2023/01/05 18:21:49;;;;;;;17.13;3.53;;;;;;;;;;5096532;28;20111;-61
2023/01/05 18:24:15;;;;;;;14.15;4.00;;;;;;;;;;5077483;28;20036;-61
2023/01/05 18:26:41;;;;;;;12.88;4.07;;;;;;;;;;5077766;28;20044;-62
2023/01/05 18:29:08;;;;;;;12.88;3.70;;;;;;;;;;5095700;28;20044;-61
2023/01/05 18:31:36;;;;;;;12.40;4.03;;;;;;;;;;5095614;28;20089;-61
2023/01/05 18:34:07;;;;;;;15.20;4.63;;;;;;;;;;5095129;28;20044;-61
2023/01/05 18:36:33;;;;;;;20.50;5.47;;;;;;;;;;5095855;28;20044;-61
2023/01/05 18:38:59;;;;;;;14.10;6.22;;;;;;;;;;5095566;28;20067;-60
2023/01/05 18:41:26;;;;;;;18.48;5.65;;;;;;;;;;5096978;28;20039;-62
2023/01/05 18:43:52;;;;;;;12.25;4.28;;;;;;;;;;5103018;28;20036;-62
2023/01/05 18:46:19;;;;;;;8.65;3.63;;;;;;;;;;5103383;28;20086;-61
2023/01/05 18:48:49;;;;;;;11.95;4.10;;;;;;;;;;5097727;28;20071;-61
2023/01/05 18:51:16;;;;;;;10.10;3.95;;;;;;;;;;5061234;28;20044;-61
2023/01/05 18:53:42;;;;;;;11.88;3.45;;;;;;;;;;5095664;28;20505;-60
2023/01/05 18:56:10;;;;;;;10.13;3.72;;;;;;;;;;5076868;28;20531;-61
2023/01/05 18:58:36;;;;;;;10.70;2.95;;;;;;;;;;5095271;28;20488;-60
2023/01/05 19:01:10;;;;;;;11.60;3.95;;;;;;;;;;5095305;28;20510;-61
2023/01/05 19:03:36;;;;;;;6.63;2.83;;;;;;;;;;5095182;28;20063;-60
2023/01/05 19:06:04;;;;;;;10.27;3.63;;;;;;;;;;5094189;28;20036;-60
2023/01/05 19:08:30;;;;;;;9.98;3.30;;;;;;;;;;5059666;28;20051;-61
2023/01/05 19:10:57;;;;;;;11.40;4.55;;;;;;;;;;5076955;28;20079;-61
2023/01/05 19:13:23;;;;;;;8.80;3.75;;;;;;;;;;5094944;28;20123;-60
2023/01/05 19:15:49;;;;;;;9.43;3.58;;;;;;;;;;5094132;28;20076;-60
2023/01/05 19:18:16;;;;;;;5.57;2.88;;;;;;;;;;5094812;28;20051;-61
2023/01/05 19:20:42;;;;;;;4.65;2.50;;;;;;;;;;5094614;28;20075;-60
2023/01/05 19:23:08;;;;;;;8.27;3.28;;;;;;;;;;5094730;28;20040;-60
2023/01/05 19:25:35;;;;;;;8.80;3.53;;;;;;;;;;5093860;28;20450;-61
2023/01/05 19:28:01;;;;;;;5.78;2.67;;;;;;;;;;5094934;28;20083;-61
2023/01/05 19:30:27;;;;;;;5.75;3.10;;;;;;;;;;5094841;28;20421;-61
2023/01/05 19:32:54;;;;;;;5.50;3.60;;;;;;;;;;5094709;28;20397;-60
2023/01/05 19:35:21;;;;;;;7.97;3.47;;;;;;;;;;5093830;28;20047;-61
2023/01/05 19:37:50;;;;;;;9.13;3.70;;;;;;;;;;5094138;28;20054;-61
2023/01/05 19:40:16;;;;;;;6.00;3.10;;;;;;;;;;5094831;28;20071;-61
2023/01/05 19:42:43;;;;;;;6.82;2.80;;;;;;;;;;5094829;28;20514;-61
2023/01/05 19:45:09;;;;;;;6.32;3.05;;;;;;;;;;5094449;28;20055;-61
2023/01/05 19:47:39;;;;;;;7.03;3.47;;;;;;;;;;5095091;28;20058;-61
2023/01/05 19:50:06;;;;;;;5.60;3.05;;;;;;;;;;5094222;28;20052;-61
2023/01/05 19:52:33;;;;;;;6.95;3.58;;;;;;;;;;5094146;28;20122;-60
2023/01/05 19:54:59;;;;;;;6.90;3.28;;;;;;;;;;5093596;28;20614;-60
2023/01/05 19:57:26;;;;;;;9.52;3.72;;;;;;;;;;5094004;28;20048;-61
2023/01/05 19:59:52;;;;;;;8.40;3.75;;;;;;;;;;5094043;28;20078;-61
2023/01/05 20:02:18;;;;;;;6.65;3.88;;;;;;;;;;5094185;28;20357;-60
2023/01/05 20:04:45;;;;;;;12.13;5.82;;;;;;;;;;5093663;28;20040;-60
2023/01/05 20:07:12;;;;;;;7.25;4.40;;;;;;;;;;5094558;28;20048;-61
2023/01/05 20:09:38;;;;;;;11.82;4.22;;;;;;;;;;5094268;28;20093;-60
2023/01/05 20:12:05;;;;;;;6.63;3.60;;;;;;;;;;5094638;28;20307;-61
2023/01/05 20:14:40;;;;;;;6.22;4.35;;;;;;;;;;5093570;28;20051;-61
2023/01/05 20:17:07;;;;;;;5.32;3.45;;;;;;;;;;5093997;28;20048;-61
2023/01/05 20:19:35;;;;;;;6.20;3.60;;;;;;;;;;5093056;28;20409;-61
2023/01/05 20:22:02;;;;;;;6.80;3.53;;;;;;;;;;5093881;28;20044;-60
2023/01/05 20:24:29;;;;;;;5.70;3.75;;;;;;;;;;5093067;28;20090;-60
2023/01/05 20:27:00;;;;;;;7.80;3.53;;;;;;;;;;5094431;28;20043;-60
2023/01/05 20:29:27;;;;;;;17.60;8.05;;;;;;;;;;5093473;28;20071;-60
2023/01/05 20:31:54;;;;;;;18.65;10.63;;;;;;;;;;5094004;28;20043;-60
2023/01/05 20:34:21;;;;;;;8.13;3.70;;;;;;;;;;5093036;28;20059;-61
2023/01/05 20:36:48;;;;;;;5.55;3.95;;;;;;;;;;5093616;28;20036;-61
2023/01/05 20:39:16;;;;;;;6.30;4.15;;;;;;;;;;5093444;28;20036;-61
2023/01/05 20:41:44;;;;;;;5.97;4.22;;;;;;;;;;5093666;28;20098;-61
2023/01/05 20:44:11;;;;;;;6.80;4.35;;;;;;;;;;5074574;28;20040;-62
2023/01/05 20:46:40;;;;;;;6.50;4.18;;;;;;;;;;5093188;28;20048;-61
2023/01/05 20:49:06;;;;;;;4.93;2.80;;;;;;;;;;5093140;28;20123;-60
2023/01/05 20:51:33;;;;;;;4.95;2.70;;;;;;;;;;5058648;28;20044;-61
2023/01/05 20:54:04;;;;;;;4.97;2.67;;;;;;;;;;5092947;28;20047;-61
2023/01/05 20:56:32;;;;;;;6.40;2.58;;;;;;;;;;5092984;28;20082;-60
2023/01/05 20:58:59;;;;;;;3.20;2.15;;;;;;;;;;5092723;28;20059;-61
2023/01/05 21:01:25;;;;;;;2.60;2.17;;;;;;;;;;5075003;28;20090;-61
2023/01/05 21:03:53;;;;;;;4.88;2.60;;;;;;;;;;5092629;28;20105;-61
2023/01/05 21:06:20;;;;;;;4.00;1.90;;;;;;;;;;5092189;28;20074;-61
2023/01/05 21:08:49;;;;;;;3.85;1.95;;;;;;;;;;5092633;28;20040;-61
2023/01/05 21:11:17;;;;;;;3.95;2.47;;;;;;;;;;5092508;28;20048;-61
2023/01/05 21:13:45;;;;;;;2.90;2.45;;;;;;;;;;5092501;28;20048;-61
2023/01/05 21:16:13;;;;;;;5.05;2.70;;;;;;;;;;5091982;28;20044;-61
2023/01/05 21:18:40;;;;;;;8.98;6.00;;;;;;;;;;5092362;28;20499;-61
2023/01/05 21:21:07;;;;;;;2.25;2.05;;;;;;;;;;5092562;28;20450;-60
2023/01/05 21:23:33;;;;;;;3.15;1.85;;;;;;;;;;5092593;28;20500;-60
2023/01/05 21:26:03;;;;;;;4.13;3.08;;;;;;;;;;5091803;28;20467;-60
2023/01/05 21:28:33;;;;;;;1.57;1.47;;;;;;;;;;5074318;28;20070;-60
2023/01/05 21:31:01;;;;;;;1.95;1.50;;;;;;;;;;5092104;28;20050;-62
2023/01/05 21:33:27;;;;;;;1.50;1.40;;;;;;;;;;5092477;28;20048;-61
2023/01/05 21:35:55;;;;;;;1.63;1.50;;;;;;;;;;5073699;28;20044;-61
2023/01/05 21:38:21;;;;;;;2.63;1.40;;;;;;;;;;5074091;28;20075;-61
2023/01/05 21:40:49;;;;;;;2.88;1.52;;;;;;;;;;5092326;28;20036;-60
2023/01/05 21:43:16;;;;;;;2.17;1.30;;;;;;;;;;5092260;28;20040;-61
2023/01/05 21:45:43;;;;;;;1.50;1.40;;;;;;;;;;5091564;28;20078;-60
2023/01/05 21:48:09;;;;;;;1.38;1.27;;;;;;;;;;5074386;28;20496;-63
2023/01/05 21:56:27;;;;;;;3.03;1.52;;;;;;;;;;5091396;28;20048;-60
2023/01/05 21:58:54;;;;;;;1.48;1.38;;;;;;;;;;5092022;28;20073;-61
2023/01/05 22:01:21;;;;;;;1.33;1.23;;;;;;;;;;5092077;28;20492;-60
2023/01/05 22:03:47;;;;;;;1.83;1.30;;;;;;;;;;5092169;28;20118;-60
2023/01/05 22:06:14;;;;;;;1.73;1.30;;;;;;;;;;5091353;28;20488;-60
2023/01/05 22:08:41;;;;;;;0.77;0.77;;;;;;;;;;5057730;28;20399;-60
2023/01/05 22:11:08;;;;;;;1.17;1.10;;;;;;;;;;5091957;28;20508;-61
2023/01/05 22:13:35;;;;;;;1.10;1.00;;;;;;;;;;5091955;28;20044;-60
2023/01/05 22:16:02;;;;;;;0.88;0.88;;;;;;;;;;5091333;28;20047;-61
2023/01/05 22:18:29;;;;;;;0.73;0.70;;;;;;;;;;5091916;28;20070;-60
2023/01/05 22:21:03;;;;;;;0.93;0.88;;;;;;;;;;5092081;28;20067;-61
2023/01/05 22:23:30;;;;;;;0.90;0.90;;;;;;;;;;5074327;28;20040;-61
2023/01/05 22:26:01;;;;;;;1.38;1.17;;;;;;;;;;5091278;28;20085;-61
2023/01/05 22:28:28;;;;;;;2.45;1.05;;;;;;;;;;5091943;28;20102;-60
2023/01/05 22:31:01;;;;;;;0.95;0.90;;;;;;;;;;5091909;28;20035;-59
2023/01/05 22:33:29;;;;;;;1.60;1.25;;;;;;;;;;5092074;28;20484;-60
2023/01/05 22:35:56;;;;;;;1.20;1.10;;;;;;;;;;5073173;28;20047;-58
2023/01/05 22:38:23;;;;;;;1.20;1.10;;;;;;;;;;5091706;28;20075;-59
2023/01/05 22:40:57;;;;;;;1.77;1.48;;;;;;;;;;5091675;28;20040;-60
2023/01/05 22:43:24;;;;;;;;;;;;;;;;;;5094463;28;20048;-60
2023/01/05 22:45:50;;;;;;;2.38;1.60;;;;;;;;;;5077074;28;19923;-60
2023/01/05 22:48:17;;;;;;;2.13;1.60;;;;;;;;;;5101019;28;20044;-59
2023/01/05 22:50:44;;;;;;;3.45;3.15;;;;;;;;;;5102750;28;20048;-58
2023/01/05 22:53:12;;;;;;;1.85;1.70;;;;;;;;;;5098089;28;20467;-60
2023/01/05 22:55:42;;;;;;;2.25;1.80;;;;;;;;;;5076960;28;20048;-61
2023/01/05 22:58:11;;;;;;;2.38;2.15;;;;;;;;;;5095399;28;20105;-61
2023/01/05 23:00:37;;;;;;;2.55;2.17;;;;;;;;;;5095479;28;20044;-61
2023/01/05 23:03:03;;;;;;;2.88;2.35;;;;;;;;;;5095538;28;20044;-60
2023/01/05 23:05:30;;;;;;;1.75;1.65;;;;;;;;;;5094532;28;20399;-61
2023/01/05 23:07:56;;;;;;;2.33;1.90;;;;;;;;;;5095153;28;20070;-61
2023/01/05 23:10:26;;;;;;;1.73;1.63;;;;;;;;;;5095083;28;20423;-60
2023/01/05 23:12:52;;;;;;;2.25;2.03;;;;;;;;;;5094927;28;20044;-61
2023/01/05 23:15:19;;;;;;;1.45;1.35;;;;;;;;;;5094255;28;20111;-61
2023/01/05 23:17:45;;;;;;;1.83;1.42;;;;;;;;;;5094621;28;20087;-60
2023/01/05 23:20:12;;;;;;;1.38;1.27;;;;;;;;;;5094664;28;20065;-61
2023/01/05 23:22:38;;;;;;;1.60;1.50;;;;;;;;;;5076842;28;20040;-60
2023/01/05 23:25:04;;;;;;;2.15;1.60;;;;;;;;;;5094104;28;20071;-60
2023/01/05 23:27:31;;;;;;;1.58;1.48;;;;;;;;;;5076644;28;20040;-60
2023/01/05 23:29:57;;;;;;;1.50;1.40;;;;;;;;;;5094516;28;20113;-61
2023/01/05 23:32:24;;;;;;;1.45;1.35;;;;;;;;;;5094600;28;20051;-61
2023/01/05 23:34:50;;;;;;;1.63;1.52;;;;;;;;;;5093558;28;20043;-62
2023/01/05 23:37:16;;;;;;;2.03;1.92;;;;;;;;;;5094395;28;20048;-62
2023/01/05 23:39:43;;;;;;;1.63;1.52;;;;;;;;;;5094292;28;20067;-62
2023/01/05 23:42:42;;;;;;;3.22;1.83;;;;;;;;;;5094116;28;20407;-61
2023/01/05 23:44:56;;;;;;;1.83;1.55;;;;;;;;;;5093362;28;20097;-61
2023/01/05 23:47:22;;;;;;;2.35;2.08;;;;;;;;;;5093935;28;20484;-62
2023/01/05 23:49:48;;;;;;;7.65;2.45;;;;;;;;;;5094040;28;20043;-62
2023/01/05 23:52:15;;;;;;;2.30;2.10;;;;;;;;;;5093965;28;20071;-62
2023/01/05 23:54:41;;;;;;;2.45;2.25;;;;;;;;;;5093267;28;20492;-60
2023/01/05 23:57:08;;;;;;;2.83;2.50;;;;;;;;;;5076138;28;20431;-60
2023/01/05 23:59:34;;;;;;;2.80;2.60;;;;;;;;;;5093852;28;20060;-59
